sensor_id;sensor_type;location;lat;lon;timestamp;pressure;altitude;pressure_sealevel;temperature;humidity
56630;BME280;42502;40.732;-74.254;2023-05-21T00:01:10;100227.97;;;22.80;30.01
56630;BME280;42502;40.732;-74.254;2023-05-21T00:03:15;100225.16;;;22.80;30.07
56630;BME280;42502;40.732;-74.254;2023-05-21T00:05:16;100210.66;;;22.78;30.10
56630;BME280;42502;40.732;-74.254;2023-05-21T00:07:17;100222.34;;;22.80;30.09
56630;BME280;42502;40.732;-74.254;2023-05-21T00:09:18;100221.97;;;22.81;30.13
56630;BME280;42502;40.732;-74.254;2023-05-21T00:11:19;100217.91;;;22.79;30.07
56630;BME280;42502;40.732;-74.254;2023-05-21T00:13:20;100219.53;;;22.80;30.05
56630;BME280;42502;40.732;-74.254;2023-05-21T00:15:20;100216.72;;;22.80;29.98
56630;BME280;42502;40.732;-74.254;2023-05-21T00:17:21;100216.72;;;22.80;30.08
56630;BME280;42502;40.732;-74.254;2023-05-21T00:19:22;100221.94;;;22.78;30.29
56630;BME280;42502;40.732;-74.254;2023-05-21T00:21:23;100227.97;;;22.80;30.00
56630;BME280;42502;40.732;-74.254;2023-05-21T00:23:25;100230.00;;;22.79;30.01
56630;BME280;42502;40.732;-74.254;2023-05-21T00:25:26;100230.78;;;22.80;30.26
56630;BME280;42502;40.732;-74.254;2023-05-21T00:27:26;100222.72;;;22.78;30.16
56630;BME280;42502;40.732;-74.254;2023-05-21T00:29:27;100224.38;;;22.79;30.16
56630;BME280;42502;40.732;-74.254;2023-05-21T00:31:29;100221.94;;;22.78;30.19
56630;BME280;42502;40.732;-74.254;2023-05-21T00:33:31;100222.34;;;22.80;30.14
56630;BME280;42502;40.732;-74.254;2023-05-21T00:35:32;100215.91;;;22.79;30.19
56630;BME280;42502;40.732;-74.254;2023-05-21T00:37:33;100210.66;;;22.78;30.20
56630;BME280;42502;40.732;-74.254;2023-05-21T00:39:34;100209.44;;;22.79;30.21
56630;BME280;42502;40.732;-74.254;2023-05-21T00:41:36;100205.44;;;22.80;30.11
56630;BME280;42502;40.732;-74.254;2023-05-21T00:43:39;100202.63;;;22.80;30.18
56630;BME280;42502;40.732;-74.254;2023-05-21T00:45:43;100196.19;;;22.79;30.32
56630;BME280;42502;40.732;-74.254;2023-05-21T00:47:45;100188.13;;;22.78;30.17
56630;BME280;42502;40.732;-74.254;2023-05-21T00:49:53;100192.56;;;22.79;30.15
56630;BME280;42502;40.732;-74.254;2023-05-21T00:51:54;100192.94;;;22.77;30.10
56630;BME280;42502;40.732;-74.254;2023-05-21T00:53:56;100196.19;;;22.79;30.15
56630;BME280;42502;40.732;-74.254;2023-05-21T00:55:57;100190.56;;;22.79;30.07
56630;BME280;42502;40.732;-74.254;2023-05-21T00:57:58;100182.13;;;22.79;30.19
56630;BME280;42502;40.732;-74.254;2023-05-21T01:00:05;100178.84;;;22.77;29.91
56630;BME280;42502;40.732;-74.254;2023-05-21T01:02:08;100181.28;;;22.79;30.07
56630;BME280;42502;40.732;-74.254;2023-05-21T01:04:08;100176.03;;;22.77;30.17
56630;BME280;42502;40.732;-74.254;2023-05-21T01:06:10;100180.88;;;22.77;30.10
56630;BME280;42502;40.732;-74.254;2023-05-21T01:08:13;100178.47;;;22.79;30.24
56630;BME280;42502;40.732;-74.254;2023-05-21T01:10:14;100176.88;;;22.78;30.24
56630;BME280;42502;40.732;-74.254;2023-05-21T01:12:16;100175.66;;;22.79;30.19
56630;BME280;42502;40.732;-74.254;2023-05-21T01:14:18;100172.84;;;22.79;30.25
56630;BME280;42502;40.732;-74.254;2023-05-21T01:16:20;100181.28;;;22.79;30.37
56630;BME280;42502;40.732;-74.254;2023-05-21T01:18:20;100175.66;;;22.79;30.14
56630;BME280;42502;40.732;-74.254;2023-05-21T01:20:22;100187.75;;;22.79;30.31
56630;BME280;42502;40.732;-74.254;2023-05-21T01:22:24;100191.75;;;22.78;30.30
56630;BME280;42502;40.732;-74.254;2023-05-21T01:24:25;100192.94;;;22.77;30.23
56630;BME280;42502;40.732;-74.254;2023-05-21T01:26:26;100193.78;;;22.78;30.23
56630;BME280;42502;40.732;-74.254;2023-05-21T01:28:27;100187.75;;;22.79;30.19
56630;BME280;42502;40.732;-74.254;2023-05-21T01:30:29;100193.38;;;22.79;30.14
56630;BME280;42502;40.732;-74.254;2023-05-21T01:32:47;100192.13;;;22.77;30.24
56630;BME280;42502;40.732;-74.254;2023-05-21T01:35:01;100193.78;;;22.78;30.24
56630;BME280;42502;40.732;-74.254;2023-05-21T01:37:36;100187.31;;;22.77;30.53
56630;BME280;42502;40.732;-74.254;2023-05-21T01:39:38;100199.00;;;22.79;30.49
56630;BME280;42502;40.732;-74.254;2023-05-21T01:41:44;100195.38;;;22.79;30.42
56630;BME280;42502;40.732;-74.254;2023-05-21T01:43:46;100199.44;;;22.81;30.22
56630;BME280;42502;40.732;-74.254;2023-05-21T01:45:49;100190.94;;;22.78;30.34
56630;BME280;42502;40.732;-74.254;2023-05-21T01:47:54;100199.00;;;22.79;30.36
56630;BME280;42502;40.732;-74.254;2023-05-21T01:49:55;100204.66;;;22.79;30.09
56630;BME280;42502;40.732;-74.254;2023-05-21T01:51:56;100192.94;;;22.77;30.23
56630;BME280;42502;40.732;-74.254;2023-05-21T01:53:57;100188.13;;;22.78;30.34
56630;BME280;42502;40.732;-74.254;2023-05-21T01:55:58;100194.94;;;22.77;30.37
56630;BME280;42502;40.732;-74.254;2023-05-21T01:58:00;100195.75;;;22.77;30.27
56630;BME280;42502;40.732;-74.254;2023-05-21T02:00:01;100194.16;;;22.76;30.16
56630;BME280;42502;40.732;-74.254;2023-05-21T02:02:02;100194.94;;;22.77;30.15
56630;BME280;42502;40.732;-74.254;2023-05-21T02:04:03;100192.94;;;22.77;30.44
56630;BME280;42502;40.732;-74.254;2023-05-21T02:06:03;100193.31;;;22.76;30.37
56630;BME280;42502;40.732;-74.254;2023-05-21T02:08:04;100197.75;;;22.77;30.25
56630;BME280;42502;40.732;-74.254;2023-05-21T02:10:08;100196.13;;;22.76;30.24
56630;BME280;42502;40.732;-74.254;2023-05-21T02:12:09;100203.41;;;22.77;30.33
56630;BME280;42502;40.732;-74.254;2023-05-21T02:14:10;100202.59;;;22.76;30.34
56630;BME280;42502;40.732;-74.254;2023-05-21T02:16:13;100194.94;;;22.77;30.32
56630;BME280;42502;40.732;-74.254;2023-05-21T02:18:15;100203.41;;;22.77;30.37
56630;BME280;42502;40.732;-74.254;2023-05-21T02:20:16;100208.22;;;22.76;30.37
56630;BME280;42502;40.732;-74.254;2023-05-21T02:22:17;100208.22;;;22.76;30.29
56630;BME280;42502;40.732;-74.254;2023-05-21T02:24:18;100208.22;;;22.76;30.39
56630;BME280;42502;40.732;-74.254;2023-05-21T02:26:18;100213.03;;;22.76;30.26
56630;BME280;42502;40.732;-74.254;2023-05-21T02:28:23;100208.22;;;22.76;30.30
56630;BME280;42502;40.732;-74.254;2023-05-21T02:30:24;100209.41;;;22.75;30.32
56630;BME280;42502;40.732;-74.254;2023-05-21T02:32:25;100219.50;;;22.76;30.38
56630;BME280;42502;40.732;-74.254;2023-05-21T02:34:26;100212.22;;;22.75;30.45
56630;BME280;42502;40.732;-74.254;2023-05-21T02:36:30;100208.22;;;22.76;30.44
56630;BME280;42502;40.732;-74.254;2023-05-21T02:38:32;100206.59;;;22.75;30.26
56630;BME280;42502;40.732;-74.254;2023-05-21T02:40:33;100205.78;;;22.75;30.34
56630;BME280;42502;40.732;-74.254;2023-05-21T02:42:35;100204.59;;;22.76;30.38
56630;BME280;42502;40.732;-74.254;2023-05-21T02:44:37;100200.97;;;22.75;30.40
56630;BME280;42502;40.732;-74.254;2023-05-21T02:46:37;100196.13;;;22.76;30.33
56630;BME280;42502;40.732;-74.254;2023-05-21T02:48:38;100189.69;;;22.75;30.42
56630;BME280;42502;40.732;-74.254;2023-05-21T02:50:39;100179.63;;;22.74;30.29
56630;BME280;42502;40.732;-74.254;2023-05-21T02:52:40;100173.59;;;22.76;30.24
56630;BME280;42502;40.732;-74.254;2023-05-21T02:54:41;100174.44;;;22.76;30.38
56630;BME280;42502;40.732;-74.254;2023-05-21T02:56:42;100179.25;;;22.76;30.35
56630;BME280;42502;40.732;-74.254;2023-05-21T02:58:42;100174.34;;;22.69;30.30
56630;BME280;42502;40.732;-74.254;2023-05-21T03:00:43;100190.50;;;22.76;30.42
56630;BME280;42502;40.732;-74.254;2023-05-21T03:02:44;100182.44;;;22.74;30.31
56630;BME280;42502;40.732;-74.254;2023-05-21T03:04:45;100180.84;;;22.73;30.27
56630;BME280;42502;40.732;-74.254;2023-05-21T03:06:46;100178.44;;;22.75;30.28
56630;BME280;42502;40.732;-74.254;2023-05-21T03:08:47;100188.06;;;22.74;30.34
56630;BME280;42502;40.732;-74.254;2023-05-21T03:10:48;100187.25;;;22.74;30.25
56630;BME280;42502;40.732;-74.254;2023-05-21T03:12:49;100190.09;;;22.74;30.42
56630;BME280;42502;40.732;-74.254;2023-05-21T03:14:50;100180.00;;;22.73;30.24
56630;BME280;42502;40.732;-74.254;2023-05-21T03:16:51;100183.66;;;22.73;30.39
56630;BME280;42502;40.732;-74.254;2023-05-21T03:18:51;100182.81;;;22.73;30.35
56630;BME280;42502;40.732;-74.254;2023-05-21T03:20:52;100182.81;;;22.73;30.40
56630;BME280;42502;40.732;-74.254;2023-05-21T03:22:53;100179.19;;;22.72;30.38
56630;BME280;42502;40.732;-74.254;2023-05-21T03:24:54;100182.44;;;22.74;30.37
56630;BME280;42502;40.732;-74.254;2023-05-21T03:26:55;100179.19;;;22.72;30.49
56630;BME280;42502;40.732;-74.254;2023-05-21T03:28:56;100169.94;;;22.71;30.41
56630;BME280;42502;40.732;-74.254;2023-05-21T03:30:58;100170.75;;;22.72;30.23
56630;BME280;42502;40.732;-74.254;2023-05-21T03:32:58;100174.38;;;22.73;30.46
56630;BME280;42502;40.732;-74.254;2023-05-21T03:34:59;100167.94;;;22.72;30.23
56630;BME280;42502;40.732;-74.254;2023-05-21T03:37:01;100169.13;;;22.71;30.26
56630;BME280;42502;40.732;-74.254;2023-05-21T03:39:02;100173.56;;;22.72;30.35
56630;BME280;42502;40.732;-74.254;2023-05-21T03:41:03;100174.75;;;22.71;30.26
56630;BME280;42502;40.732;-74.254;2023-05-21T03:43:04;100174.75;;;22.71;30.51
56630;BME280;42502;40.732;-74.254;2023-05-21T03:45:05;100181.59;;;22.70;30.41
56630;BME280;42502;40.732;-74.254;2023-05-21T03:47:06;100179.59;;;22.70;30.39
56630;BME280;42502;40.732;-74.254;2023-05-21T03:49:07;100170.34;;;22.70;30.32
56630;BME280;42502;40.732;-74.254;2023-05-21T03:51:08;100180.38;;;22.71;30.36
56630;BME280;42502;40.732;-74.254;2023-05-21T03:53:08;100176.75;;;22.70;30.20
56630;BME280;42502;40.732;-74.254;2023-05-21T03:55:10;100180.38;;;22.71;30.42
56630;BME280;42502;40.732;-74.254;2023-05-21T03:57:11;100178.78;;;22.70;30.40
56630;BME280;42502;40.732;-74.254;2023-05-21T03:59:11;100181.59;;;22.70;30.49
56630;BME280;42502;40.732;-74.254;2023-05-21T04:01:12;100186.41;;;22.69;30.33
56630;BME280;42502;40.732;-74.254;2023-05-21T04:03:13;100183.59;;;22.69;30.34
56630;BME280;42502;40.732;-74.254;2023-05-21T04:05:14;100188.41;;;22.69;30.50
56630;BME280;42502;40.732;-74.254;2023-05-21T04:07:15;100191.22;;;22.69;30.47
56630;BME280;42502;40.732;-74.254;2023-05-21T04:09:18;100192.03;;;22.69;30.53
56630;BME280;42502;40.732;-74.254;2023-05-21T04:11:19;100193.63;;;22.67;30.48
56630;BME280;42502;40.732;-74.254;2023-05-21T04:13:20;100191.22;;;22.69;30.34
56630;BME280;42502;40.732;-74.254;2023-05-21T04:15:21;100196.84;;;22.69;30.38
56630;BME280;42502;40.732;-74.254;2023-05-21T04:17:21;100197.66;;;22.69;30.54
56630;BME280;42502;40.732;-74.254;2023-05-21T04:19:22;100190.44;;;22.68;30.37
56630;BME280;42502;40.732;-74.254;2023-05-21T04:21:23;100186.78;;;22.68;30.45
56630;BME280;42502;40.732;-74.254;2023-05-21T04:23:24;100188.78;;;22.67;30.30
56630;BME280;42502;40.732;-74.254;2023-05-21T04:25:25;100190.44;;;22.68;30.35
56630;BME280;42502;40.732;-74.254;2023-05-21T04:27:25;100194.41;;;22.67;30.49
56630;BME280;42502;40.732;-74.254;2023-05-21T04:29:26;100194.41;;;22.67;30.27
56630;BME280;42502;40.732;-74.254;2023-05-21T04:31:32;100188.00;;;22.67;30.23
56630;BME280;42502;40.732;-74.254;2023-05-21T04:33:33;100198.03;;;22.68;30.37
56630;BME280;42502;40.732;-74.254;2023-05-21T04:35:35;100192.78;;;22.66;30.25
56630;BME280;42502;40.732;-74.254;2023-05-21T04:37:36;100184.34;;;22.66;30.37
56630;BME280;42502;40.732;-74.254;2023-05-21T04:39:36;100183.53;;;22.66;30.32
56630;BME280;42502;40.732;-74.254;2023-05-21T04:41:38;100186.75;;;22.64;30.49
56630;BME280;42502;40.732;-74.254;2023-05-21T04:43:39;100186.34;;;22.66;30.52
56630;BME280;42502;40.732;-74.254;2023-05-21T04:45:43;100190.81;;;22.67;30.31
56630;BME280;42502;40.732;-74.254;2023-05-21T04:47:44;100188.00;;;22.67;30.43
56630;BME280;42502;40.732;-74.254;2023-05-21T04:49:45;100192.00;;;22.66;30.42
56630;BME280;42502;40.732;-74.254;2023-05-21T04:51:46;100199.25;;;22.67;30.36
56630;BME280;42502;40.732;-74.254;2023-05-21T04:53:48;100194.81;;;22.66;30.57
56630;BME280;42502;40.732;-74.254;2023-05-21T04:55:49;100195.59;;;22.66;30.29
56630;BME280;42502;40.732;-74.254;2023-05-21T04:57:50;100188.00;;;22.67;30.36
56630;BME280;42502;40.732;-74.254;2023-05-21T04:59:52;100185.56;;;22.65;30.36
56630;BME280;42502;40.732;-74.254;2023-05-21T05:01:53;100182.75;;;22.65;30.39
56630;BME280;42502;40.732;-74.254;2023-05-21T05:03:54;100190.34;;;22.65;30.42
56630;BME280;42502;40.732;-74.254;2023-05-21T05:05:55;100191.19;;;22.65;30.23
56630;BME280;42502;40.732;-74.254;2023-05-21T05:07:56;100191.19;;;22.65;30.52
56630;BME280;42502;40.732;-74.254;2023-05-21T05:09:57;100180.72;;;22.66;30.48
56630;BME280;42502;40.732;-74.254;2023-05-21T05:11:58;100190.34;;;22.65;30.49
56630;BME280;42502;40.732;-74.254;2023-05-21T05:13:59;100184.72;;;22.65;30.48
56630;BME280;42502;40.732;-74.254;2023-05-21T05:15:59;100188.75;;;22.64;30.43
56630;BME280;42502;40.732;-74.254;2023-05-21T05:18:00;100184.72;;;22.65;30.38
56630;BME280;42502;40.732;-74.254;2023-05-21T05:20:01;100179.47;;;22.63;30.52
56630;BME280;42502;40.732;-74.254;2023-05-21T05:22:03;100194.38;;;22.64;30.42
56630;BME280;42502;40.732;-74.254;2023-05-21T05:24:04;100191.56;;;22.64;30.36
56630;BME280;42502;40.732;-74.254;2023-05-21T05:26:05;100193.56;;;22.63;30.33
56630;BME280;42502;40.732;-74.254;2023-05-21T05:28:06;100201.63;;;22.65;30.38
56630;BME280;42502;40.732;-74.254;2023-05-21T05:30:07;100194.38;;;22.64;30.39
56630;BME280;42502;40.732;-74.254;2023-05-21T05:32:08;100193.56;;;22.63;30.43
56630;BME280;42502;40.732;-74.254;2023-05-21T05:34:08;100197.56;;;22.62;30.42
56630;BME280;42502;40.732;-74.254;2023-05-21T05:36:09;100192.75;;;22.63;30.25
56630;BME280;42502;40.732;-74.254;2023-05-21T05:38:10;100177.03;;;22.62;30.54
56630;BME280;42502;40.732;-74.254;2023-05-21T05:40:11;100170.22;;;22.63;30.37
56630;BME280;42502;40.732;-74.254;2023-05-21T05:42:12;100170.22;;;22.63;30.29
56630;BME280;42502;40.732;-74.254;2023-05-21T05:44:13;100172.22;;;22.62;30.44
56630;BME280;42502;40.732;-74.254;2023-05-21T05:46:13;100165.78;;;22.62;30.48
56630;BME280;42502;40.732;-74.254;2023-05-21T05:48:14;100164.16;;;22.61;30.41
56630;BME280;42502;40.732;-74.254;2023-05-21T05:50:16;100163.75;;;22.62;30.44
56630;BME280;42502;40.732;-74.254;2023-05-21T05:52:17;100166.56;;;22.62;30.42
56630;BME280;42502;40.732;-74.254;2023-05-21T05:54:18;100164.97;;;22.61;30.21
56630;BME280;42502;40.732;-74.254;2023-05-21T05:56:18;100173.44;;;22.61;30.36
56630;BME280;42502;40.732;-74.254;2023-05-21T05:58:19;100176.25;;;22.61;30.36
56630;BME280;42502;40.732;-74.254;2023-05-21T06:00:20;100182.66;;;22.62;30.44
56630;BME280;42502;40.732;-74.254;2023-05-21T06:02:21;100183.84;;;22.61;30.47
56630;BME280;42502;40.732;-74.254;2023-05-21T06:04:22;100181.88;;;22.61;30.33
56630;BME280;42502;40.732;-74.254;2023-05-21T06:06:23;100184.69;;;22.61;30.46
56630;BME280;42502;40.732;-74.254;2023-05-21T06:08:23;100182.66;;;22.62;30.47
56630;BME280;42502;40.732;-74.254;2023-05-21T06:10:24;100188.69;;;22.60;30.46
56630;BME280;42502;40.732;-74.254;2023-05-21T06:12:25;100200.75;;;22.61;30.36
56630;BME280;42502;40.732;-74.254;2023-05-21T06:14:26;100187.50;;;22.61;30.40
56630;BME280;42502;40.732;-74.254;2023-05-21T06:16:27;100185.88;;;22.60;30.38
56630;BME280;42502;40.732;-74.254;2023-05-21T06:18:30;100188.69;;;22.60;30.41
56630;BME280;42502;40.732;-74.254;2023-05-21T06:20:31;100189.47;;;22.61;30.54
56630;BME280;42502;40.732;-74.254;2023-05-21T06:22:32;100195.13;;;22.61;30.46
56630;BME280;42502;40.732;-74.254;2023-05-21T06:24:33;100203.56;;;22.61;30.61
56630;BME280;42502;40.732;-74.254;2023-05-21T06:26:34;100220.44;;;22.61;30.57
56630;BME280;42502;40.732;-74.254;2023-05-21T06:28:34;100210.41;;;22.60;30.51
56630;BME280;42502;40.732;-74.254;2023-05-21T06:30:35;100217.63;;;22.61;30.52
56630;BME280;42502;40.732;-74.254;2023-05-21T06:32:36;100217.63;;;22.61;30.54
56630;BME280;42502;40.732;-74.254;2023-05-21T06:34:37;100216.84;;;22.60;30.53
56630;BME280;42502;40.732;-74.254;2023-05-21T06:36:37;100217.63;;;22.61;30.55
56630;BME280;42502;40.732;-74.254;2023-05-21T06:38:38;100231.72;;;22.61;30.53
56630;BME280;42502;40.732;-74.254;2023-05-21T06:40:40;100228.91;;;22.61;30.69
56630;BME280;42502;40.732;-74.254;2023-05-21T06:42:41;100226.91;;;22.61;30.48
56630;BME280;42502;40.732;-74.254;2023-05-21T06:44:41;100232.53;;;22.61;30.54
56630;BME280;42502;40.732;-74.254;2023-05-21T06:46:42;100230.91;;;22.60;30.55
56630;BME280;42502;40.732;-74.254;2023-05-21T06:48:43;100233.69;;;22.57;30.48
56630;BME280;42502;40.732;-74.254;2023-05-21T06:50:45;100239.34;;;22.60;30.62
56630;BME280;42502;40.732;-74.254;2023-05-21T06:52:46;100246.16;;;22.59;30.68
56630;BME280;42502;40.732;-74.254;2023-05-21T06:54:47;100252.63;;;22.60;30.54
56630;BME280;42502;40.732;-74.254;2023-05-21T06:56:48;100253.81;;;22.59;30.73
56630;BME280;42502;40.732;-74.254;2023-05-21T06:58:49;100247.00;;;22.60;30.81
56630;BME280;42502;40.732;-74.254;2023-05-21T07:00:49;100243.34;;;22.59;30.70
56630;BME280;42502;40.732;-74.254;2023-05-21T07:02:50;100243.34;;;22.59;30.59
56630;BME280;42502;40.732;-74.254;2023-05-21T07:04:51;100239.34;;;22.60;30.74
56630;BME280;42502;40.732;-74.254;2023-05-21T07:06:53;100239.34;;;22.60;30.57
56630;BME280;42502;40.732;-74.254;2023-05-21T07:08:53;100244.19;;;22.60;30.60
56630;BME280;42502;40.732;-74.254;2023-05-21T07:10:54;100244.19;;;22.60;30.54
56630;BME280;42502;40.732;-74.254;2023-05-21T07:12:55;100243.34;;;22.59;30.75
56630;BME280;42502;40.732;-74.254;2023-05-21T07:14:59;100232.91;;;22.60;30.58
56630;BME280;42502;40.732;-74.254;2023-05-21T07:17:00;100244.19;;;22.60;30.69
56630;BME280;42502;40.732;-74.254;2023-05-21T07:19:01;100241.38;;;22.60;30.71
56630;BME280;42502;40.732;-74.254;2023-05-21T07:21:01;100241.75;;;22.58;30.59
56630;BME280;42502;40.732;-74.254;2023-05-21T07:23:03;100242.56;;;22.59;30.65
56630;BME280;42502;40.732;-74.254;2023-05-21T07:25:04;100240.53;;;22.59;30.68
56630;BME280;42502;40.732;-74.254;2023-05-21T07:27:05;100236.13;;;22.58;30.63
56630;BME280;42502;40.732;-74.254;2023-05-21T07:29:06;100247.38;;;22.58;30.74
56630;BME280;42502;40.732;-74.254;2023-05-21T07:31:07;100248.19;;;22.59;30.76
56630;BME280;42502;40.732;-74.254;2023-05-21T07:33:08;100253.81;;;22.59;30.77
56630;BME280;42502;40.732;-74.254;2023-05-21T07:35:09;100253.81;;;22.59;30.68
56630;BME280;42502;40.732;-74.254;2023-05-21T07:37:09;100257.81;;;22.58;30.74
56630;BME280;42502;40.732;-74.254;2023-05-21T07:39:10;100265.06;;;22.59;30.77
56630;BME280;42502;40.732;-74.254;2023-05-21T07:41:11;100263.44;;;22.58;30.65
56630;BME280;42502;40.732;-74.254;2023-05-21T07:43:12;100260.63;;;22.58;30.65
56630;BME280;42502;40.732;-74.254;2023-05-21T07:45:13;100254.19;;;22.57;30.81
56630;BME280;42502;40.732;-74.254;2023-05-21T07:47:14;100257.00;;;22.57;30.77
56630;BME280;42502;40.732;-74.254;2023-05-21T07:49:15;100265.44;;;22.57;30.68
56630;BME280;42502;40.732;-74.254;2023-05-21T07:51:16;100273.09;;;22.57;30.66
56630;BME280;42502;40.732;-74.254;2023-05-21T07:53:17;100269.81;;;22.54;30.85
56630;BME280;42502;40.732;-74.254;2023-05-21T07:55:18;100267.47;;;22.57;30.92
56630;BME280;42502;40.732;-74.254;2023-05-21T07:57:19;100265.81;;;22.56;30.81
56630;BME280;42502;40.732;-74.254;2023-05-21T07:59:20;100268.66;;;22.56;30.75
56630;BME280;42502;40.732;-74.254;2023-05-21T08:01:21;100265.03;;;22.55;30.74
56630;BME280;42502;40.732;-74.254;2023-05-21T08:03:25;100268.22;;;22.53;30.75
56630;BME280;42502;40.732;-74.254;2023-05-21T08:05:27;100269.81;;;22.54;30.72
56630;BME280;42502;40.732;-74.254;2023-05-21T08:07:28;100275.44;;;22.54;30.75
56630;BME280;42502;40.732;-74.254;2023-05-21T08:09:29;100278.28;;;22.54;30.82
56630;BME280;42502;40.732;-74.254;2023-05-21T08:11:31;100281.84;;;22.51;30.82
56630;BME280;42502;40.732;-74.254;2023-05-21T08:13:32;100275.84;;;22.53;30.92
56630;BME280;42502;40.732;-74.254;2023-05-21T08:15:33;100278.66;;;22.53;30.82
56630;BME280;42502;40.732;-74.254;2023-05-21T08:17:34;100280.66;;;22.52;30.81
56630;BME280;42502;40.732;-74.254;2023-05-21T08:19:35;100276.59;;;22.50;30.78
56630;BME280;42502;40.732;-74.254;2023-05-21T08:21:35;100277.03;;;22.52;30.83
56630;BME280;42502;40.732;-74.254;2023-05-21T08:23:37;100277.03;;;22.52;30.83
56630;BME280;42502;40.732;-74.254;2023-05-21T08:25:41;100274.59;;;22.50;30.94
56630;BME280;42502;40.732;-74.254;2023-05-21T08:27:41;100274.59;;;22.50;30.89
56630;BME280;42502;40.732;-74.254;2023-05-21T08:29:42;100275.41;;;22.51;30.84
56630;BME280;42502;40.732;-74.254;2023-05-21T08:31:43;100280.25;;;22.50;30.80
56630;BME280;42502;40.732;-74.254;2023-05-21T08:33:51;100285.03;;;22.50;30.90
56630;BME280;42502;40.732;-74.254;2023-05-21T08:35:52;100278.59;;;22.49;31.01
56630;BME280;42502;40.732;-74.254;2023-05-21T08:37:52;100284.22;;;22.49;30.77
56630;BME280;42502;40.732;-74.254;2023-05-21T08:39:53;100282.22;;;22.50;30.92
56630;BME280;42502;40.732;-74.254;2023-05-21T08:41:58;100281.00;;;22.47;30.71
56630;BME280;42502;40.732;-74.254;2023-05-21T08:44:05;100284.59;;;22.48;30.81
56630;BME280;42502;40.732;-74.254;2023-05-21T08:46:08;100279.34;;;22.46;30.73
56630;BME280;42502;40.732;-74.254;2023-05-21T08:48:10;100284.59;;;22.48;30.78
56630;BME280;42502;40.732;-74.254;2023-05-21T08:50:13;100280.16;;;22.47;30.99
56630;BME280;42502;40.732;-74.254;2023-05-21T08:52:15;100281.78;;;22.48;31.02
56630;BME280;42502;40.732;-74.254;2023-05-21T08:54:19;100284.19;;;22.46;30.86
56630;BME280;42502;40.732;-74.254;2023-05-21T08:56:20;100282.16;;;22.46;31.01
56630;BME280;42502;40.732;-74.254;2023-05-21T08:58:22;100279.34;;;22.46;30.99
56630;BME280;42502;40.732;-74.254;2023-05-21T09:00:23;100276.13;;;22.44;30.87
56630;BME280;42502;40.732;-74.254;2023-05-21T09:02:24;100275.66;;;22.42;30.87
56630;BME280;42502;40.732;-74.254;2023-05-21T09:04:25;100280.50;;;22.42;30.97
56630;BME280;42502;40.732;-74.254;2023-05-21T09:06:27;100286.53;;;22.44;30.80
56630;BME280;42502;40.732;-74.254;2023-05-21T09:08:33;100285.75;;;22.43;31.00
56630;BME280;42502;40.732;-74.254;2023-05-21T09:10:37;100286.91;;;22.42;30.96
56630;BME280;42502;40.732;-74.254;2023-05-21T09:12:39;100288.94;;;22.42;30.91
56630;BME280;42502;40.732;-74.254;2023-05-21T09:14:40;100285.69;;;22.40;31.18
56630;BME280;42502;40.732;-74.254;2023-05-21T09:16:45;100305.00;;;22.41;30.82
56630;BME280;42502;40.732;-74.254;2023-05-21T09:18:48;100293.75;;;22.41;30.88
56630;BME280;42502;40.732;-74.254;2023-05-21T09:20:48;100304.19;;;22.41;30.84
56630;BME280;42502;40.732;-74.254;2023-05-21T09:22:55;100303.38;;;22.40;31.24
56630;BME280;42502;40.732;-74.254;2023-05-21T09:24:56;100311.03;;;22.40;31.01
56630;BME280;42502;40.732;-74.254;2023-05-21T09:27:00;100313.00;;;22.39;31.01
56630;BME280;42502;40.732;-74.254;2023-05-21T09:29:01;100307.38;;;22.39;31.01
56630;BME280;42502;40.732;-74.254;2023-05-21T09:31:02;100309.38;;;22.39;30.92
56630;BME280;42502;40.732;-74.254;2023-05-21T09:33:03;100307.38;;;22.39;30.83
56630;BME280;42502;40.732;-74.254;2023-05-21T09:37:08;100318.19;;;22.37;31.09
56630;BME280;42502;40.732;-74.254;2023-05-21T09:39:09;100311.78;;;22.37;30.96
56630;BME280;42502;40.732;-74.254;2023-05-21T09:41:16;100312.94;;;22.35;30.98
56630;BME280;42502;40.732;-74.254;2023-05-21T09:43:16;100313.31;;;22.34;30.94
56630;BME280;42502;40.732;-74.254;2023-05-21T09:45:25;100334.66;;;22.35;30.82
56630;BME280;42502;40.732;-74.254;2023-05-21T09:47:26;100331.84;;;22.35;31.00
56630;BME280;42502;40.732;-74.254;2023-05-21T09:49:27;100343.09;;;22.35;31.11
56630;BME280;42502;40.732;-74.254;2023-05-21T09:51:37;100349.91;;;22.34;31.06
56630;BME280;42502;40.732;-74.254;2023-05-21T09:53:52;100346.66;;;22.32;30.99
56630;BME280;42502;40.732;-74.254;2023-05-21T09:55:56;100360.38;;;22.33;31.03
56630;BME280;42502;40.732;-74.254;2023-05-21T09:57:57;100351.09;;;22.33;30.85
56630;BME280;42502;40.732;-74.254;2023-05-21T09:59:58;100357.94;;;22.32;31.21
56630;BME280;42502;40.732;-74.254;2023-05-21T10:01:59;100373.97;;;22.31;30.94
56630;BME280;42502;40.732;-74.254;2023-05-21T10:04:06;100365.88;;;22.30;31.09
56630;BME280;42502;40.732;-74.254;2023-05-21T10:06:09;100372.31;;;22.30;30.96
56630;BME280;42502;40.732;-74.254;2023-05-21T10:08:14;100377.13;;;22.30;31.06
56630;BME280;42502;40.732;-74.254;2023-05-21T10:10:20;100375.13;;;22.30;30.96
56630;BME280;42502;40.732;-74.254;2023-05-21T10:12:22;100385.56;;;22.30;31.09
56630;BME280;42502;40.732;-74.254;2023-05-21T10:14:28;100389.56;;;22.29;31.09
56630;BME280;42502;40.732;-74.254;2023-05-21T10:16:32;100392.38;;;22.29;30.88
56630;BME280;42502;40.732;-74.254;2023-05-21T10:18:34;100399.22;;;22.28;31.09
56630;BME280;42502;40.732;-74.254;2023-05-21T10:20:37;100408.84;;;22.27;31.24
56630;BME280;42502;40.732;-74.254;2023-05-21T10:22:39;100418.06;;;22.27;31.18